createdAt,value
2023-04-22T00:01:52.122Z,47.04
2023-04-22T00:04:21.543Z,47.08
2023-04-22T00:06:48.544Z,46.77
2023-04-22T00:09:15.470Z,46.82
2023-04-22T00:11:42.364Z,47.10
2023-04-22T00:14:12.222Z,46.95
2023-04-22T00:16:42.033Z,47.32
2023-04-22T00:19:11.903Z,47.11
2023-04-22T00:21:38.779Z,47.78
2023-04-22T00:24:06.023Z,47.93
2023-04-22T00:26:35.551Z,47.49
2023-04-22T00:29:05.530Z,47.90
2023-04-22T00:31:34.950Z,47.91
2023-04-22T00:34:04.098Z,48.01
2023-04-22T00:36:31.659Z,48.14
2023-04-22T00:38:58.535Z,47.95
2023-04-22T00:41:26.190Z,48.36
2023-04-22T00:43:53.693Z,48.70
2023-04-22T00:46:21.644Z,48.54
2023-04-22T00:48:54.077Z,48.86
2023-04-22T00:51:23.447Z,49.40
2023-04-22T00:53:50.433Z,48.80
2023-04-22T00:56:19.888Z,49.37
2023-04-22T00:58:46.781Z,48.78
2023-04-22T01:01:18.841Z,48.76
2023-04-22T01:03:48.299Z,48.82
2023-04-22T01:06:16.403Z,49.17
2023-04-22T01:08:43.590Z,48.86
2023-04-22T01:11:13.861Z,49.08
2023-04-22T01:13:41.527Z,48.70
2023-04-22T01:16:10.084Z,48.74
2023-04-22T01:18:41.874Z,48.66
2023-04-22T01:21:08.712Z,48.36
2023-04-22T01:23:35.883Z,48.45
2023-04-22T01:26:05.325Z,48.10
2023-04-22T01:28:32.712Z,48.51
2023-04-22T01:31:04.654Z,49.19
2023-04-22T01:33:31.615Z,49.40
2023-04-22T01:35:58.448Z,49.32
2023-04-22T01:38:25.388Z,49.41
2023-04-22T01:40:55.377Z,49.37
2023-04-22T01:43:22.355Z,49.64
2023-04-22T01:45:49.252Z,49.07
2023-04-22T01:48:21.069Z,49.02
2023-04-22T01:50:47.974Z,49.28
2023-04-22T01:53:14.934Z,49.04
2023-04-22T01:55:43.135Z,49.70
2023-04-22T01:58:12.364Z,49.55
2023-04-22T02:00:43.778Z,49.57
2023-04-22T02:03:11.081Z,50.75
2023-04-22T02:05:41.530Z,50.26
2023-04-22T02:08:08.403Z,50.32
2023-04-22T02:10:35.361Z,50.08
2023-04-22T02:13:04.558Z,50.61
2023-04-22T02:15:31.835Z,50.57
2023-04-22T02:18:00.955Z,51.33
2023-04-22T02:20:28.082Z,51.17
2023-04-22T02:22:55.033Z,51.35
2023-04-22T02:25:21.970Z,51.31
2023-04-22T02:27:48.905Z,51.29
2023-04-22T02:30:16.206Z,51.34
2023-04-22T02:32:43.312Z,51.05
2023-04-22T02:35:11.679Z,51.46
2023-04-22T02:37:40.967Z,50.98
2023-04-22T02:40:10.963Z,51.39
2023-04-22T02:42:37.898Z,52.01
2023-04-22T02:45:10.240Z,51.85
2023-04-22T02:47:37.178Z,51.23
2023-04-22T02:50:04.469Z,51.32
2023-04-22T02:52:34.380Z,52.35
2023-04-22T02:55:01.431Z,51.50
2023-04-22T02:57:28.313Z,51.89
2023-04-22T02:59:55.395Z,52.40
2023-04-22T03:02:22.611Z,51.91
2023-04-22T03:04:49.696Z,52.28
2023-04-22T03:07:17.133Z,52.71
2023-04-22T03:09:46.496Z,51.93
2023-04-22T03:12:13.558Z,51.01
2023-04-22T03:14:42.565Z,51.18
2023-04-22T03:17:11.964Z,51.95
2023-04-22T03:19:39.456Z,52.11
2023-04-22T03:22:06.554Z,52.56
2023-04-22T03:24:35.908Z,51.52
2023-04-22T03:27:04.018Z,52.17
2023-04-22T03:29:33.032Z,52.08
2023-04-22T03:32:00.214Z,51.89
2023-04-22T03:34:30.105Z,51.60
2023-04-22T03:36:57.004Z,52.21
2023-04-22T03:39:23.860Z,53.14
2023-04-22T03:41:50.954Z,52.45
2023-04-22T03:44:17.821Z,52.22
2023-04-22T03:46:44.707Z,52.08
2023-04-22T03:49:12.272Z,53.69
2023-04-22T03:51:39.161Z,53.12
2023-04-22T03:54:08.203Z,53.04
2023-04-22T03:56:35.181Z,52.53
2023-04-22T03:59:02.131Z,52.81
2023-04-22T04:01:28.983Z,53.48
2023-04-22T04:03:58.392Z,53.67
2023-04-22T04:06:28.054Z,54.75
2023-04-22T04:08:54.926Z,54.27
2023-04-22T04:11:24.859Z,54.61
2023-04-22T04:13:54.029Z,55.48
2023-04-22T04:16:25.558Z,56.01
2023-04-22T04:18:52.723Z,55.12
2023-04-22T04:21:19.620Z,55.21
2023-04-22T04:23:47.501Z,54.44
2023-04-22T04:26:15.192Z,54.65
2023-04-22T04:28:42.203Z,55.23
2023-04-22T04:31:09.233Z,55.45
2023-04-22T04:33:36.971Z,54.72
2023-04-22T04:36:08.754Z,54.29
2023-04-22T04:38:39.003Z,53.41
2023-04-22T04:41:05.854Z,53.08
2023-04-22T04:43:32.693Z,53.40
2023-04-22T04:46:01.898Z,53.08
2023-04-22T04:48:28.987Z,53.29
2023-04-22T04:50:56.607Z,52.58
2023-04-22T04:53:28.170Z,53.00
2023-04-22T04:55:55.185Z,52.83
2023-04-22T04:58:24.542Z,53.22
2023-04-22T05:00:51.644Z,53.22
2023-04-22T05:03:18.674Z,52.73
2023-04-22T05:05:48.292Z,53.61
2023-04-22T05:08:15.309Z,53.53
2023-04-22T05:10:42.497Z,53.30
2023-04-22T05:13:09.384Z,53.14
2023-04-22T05:15:38.948Z,52.38
2023-04-22T05:18:09.100Z,53.30
2023-04-22T05:20:38.133Z,53.69
2023-04-22T05:23:09.636Z,52.67
2023-04-22T05:25:39.308Z,52.93
2023-04-22T05:28:06.161Z,53.16
2023-04-22T05:30:33.287Z,53.61
2023-04-22T05:33:00.406Z,53.35
2023-04-22T05:35:30.108Z,53.23
2023-04-22T05:37:56.946Z,52.43
2023-04-22T05:40:28.365Z,52.27
2023-04-22T05:42:57.830Z,52.06
2023-04-22T05:45:24.685Z,51.80
2023-04-22T05:47:51.683Z,51.59
2023-04-22T05:50:24.018Z,50.63
2023-04-22T05:52:50.923Z,50.80
2023-04-22T05:55:20.310Z,51.57
2023-04-22T05:57:51.474Z,52.49
2023-04-22T06:00:18.788Z,52.69
2023-04-22T06:02:48.104Z,52.48
2023-04-22T06:05:15.358Z,53.45
2023-04-22T06:07:42.332Z,52.92
2023-04-22T06:10:14.255Z,52.80
2023-04-22T06:12:41.202Z,52.46
2023-04-22T06:15:08.723Z,52.62
2023-04-22T06:17:35.858Z,52.41
2023-04-22T06:20:03.120Z,52.14
2023-04-22T06:22:30.001Z,51.60
2023-04-22T06:24:56.848Z,52.04
2023-04-22T06:27:23.721Z,52.31
2023-04-22T06:29:50.865Z,52.03
2023-04-22T06:32:17.761Z,51.86
2023-04-22T06:34:46.936Z,51.56
2023-04-22T06:37:13.854Z,50.25
2023-04-22T06:39:40.973Z,50.47
2023-04-22T06:42:08.226Z,51.14
2023-04-22T06:44:37.503Z,51.21
2023-04-22T06:47:07.227Z,51.03
2023-04-22T06:49:41.527Z,51.38
2023-04-22T06:52:08.804Z,50.79
2023-04-22T06:54:38.508Z,50.98
2023-04-22T06:57:10.679Z,51.15
2023-04-22T06:59:40.416Z,51.19
2023-04-22T07:02:07.943Z,50.44
2023-04-22T07:04:35.058Z,50.32
2023-04-22T07:07:02.345Z,49.76
2023-04-22T07:09:29.204Z,49.19
2023-04-22T07:11:58.026Z,49.28
2023-04-22T07:14:27.460Z,49.26
2023-04-22T07:16:54.581Z,48.57
2023-04-22T07:19:22.028Z,46.84
2023-04-22T07:21:59.328Z,47.84
2023-04-22T07:24:29.340Z,47.11
2023-04-22T07:26:59.617Z,47.07
2023-04-22T07:29:26.797Z,46.35
2023-04-22T07:31:53.855Z,45.77
2023-04-22T07:34:21.907Z,45.59
2023-04-22T07:36:52.738Z,44.99
2023-04-22T07:39:22.939Z,44.88
2023-04-22T07:41:50.835Z,44.50
2023-04-22T07:44:21.523Z,44.99
2023-04-22T07:46:50.911Z,44.34
2023-04-22T07:49:18.667Z,43.96
2023-04-22T07:51:46.725Z,43.51
2023-04-22T07:54:13.796Z,43.20
2023-04-22T07:56:43.133Z,42.66
2023-04-22T07:59:10.000Z,41.72
2023-04-22T08:01:36.925Z,41.59
2023-04-22T08:04:04.118Z,40.18
2023-04-22T08:06:33.645Z,40.35
2023-04-22T08:09:01.099Z,40.58
2023-04-22T08:11:28.071Z,40.63
2023-04-22T08:13:55.219Z,40.66
2023-04-22T08:16:22.234Z,40.09
2023-04-22T08:18:52.263Z,39.74
2023-04-22T08:21:19.167Z,39.57
2023-04-22T08:23:46.363Z,40.75
2023-04-22T08:26:15.297Z,41.06
2023-04-22T08:28:42.654Z,40.65
2023-04-22T08:31:12.098Z,40.63
2023-04-22T08:33:41.648Z,40.49
2023-04-22T08:36:11.019Z,41.81
2023-04-22T08:38:38.099Z,41.78
2023-04-22T08:41:07.205Z,41.94
2023-04-22T08:43:34.717Z,42.47
2023-04-22T08:46:02.259Z,41.51
2023-04-22T08:48:31.689Z,41.09
2023-04-22T08:51:01.121Z,41.37
2023-04-22T08:53:31.562Z,40.70
2023-04-22T08:56:01.189Z,40.25
2023-04-22T08:58:29.040Z,39.79
2023-04-22T09:01:01.509Z,39.04
2023-04-22T09:03:28.637Z,39.79
2023-04-22T09:05:58.357Z,39.32
2023-04-22T09:08:28.114Z,39.40
2023-04-22T09:10:55.194Z,39.29
2023-04-22T09:13:24.282Z,39.04
2023-04-22T09:15:51.164Z,38.72
2023-04-22T09:18:19.690Z,38.25
2023-04-22T09:20:51.954Z,38.22
2023-04-22T09:23:24.086Z,37.89
2023-04-22T09:25:51.331Z,37.23
2023-04-22T09:28:21.407Z,36.86
2023-04-22T09:30:48.398Z,36.55
2023-04-22T09:33:17.801Z,36.03
2023-04-22T09:35:45.074Z,35.62
2023-04-22T09:38:13.077Z,35.48
2023-04-22T09:40:44.052Z,35.64
2023-04-22T09:43:17.560Z,35.45
2023-04-22T09:45:45.379Z,35.42
2023-04-22T09:48:19.302Z,35.74
2023-04-22T09:50:51.970Z,36.38
2023-04-22T09:53:21.568Z,35.71
2023-04-22T09:55:54.330Z,35.97
2023-04-22T09:58:27.653Z,36.40
2023-04-22T10:00:59.166Z,35.76
2023-04-22T10:03:28.680Z,36.01
2023-04-22T10:05:55.842Z,36.16
2023-04-22T10:08:22.923Z,35.13
2023-04-22T10:10:49.952Z,35.02
2023-04-22T10:13:16.917Z,35.23
2023-04-22T10:15:51.010Z,34.81
2023-04-22T10:18:24.961Z,34.66
2023-04-22T10:20:56.378Z,33.50
2023-04-22T10:23:26.303Z,33.67
2023-04-22T10:25:57.029Z,34.45
2023-04-22T10:28:30.781Z,34.17
2023-04-22T10:31:06.481Z,33.81
2023-04-22T10:33:35.210Z,34.91
2023-04-22T10:36:20.929Z,34.88
2023-04-22T10:38:50.804Z,33.71
2023-04-22T10:41:30.889Z,32.90
2023-04-22T10:44:07.128Z,33.95
2023-04-22T10:46:34.936Z,33.77
2023-04-22T10:49:20.570Z,33.31
2023-04-22T10:51:58.636Z,33.25
2023-04-22T10:54:37.541Z,33.52
2023-04-22T10:57:06.810Z,33.15
2023-04-22T10:59:42.877Z,34.11
2023-04-22T11:02:12.133Z,32.92
2023-04-22T11:04:39.640Z,32.59
2023-04-22T11:07:20.717Z,31.96
2023-04-22T11:10:09.572Z,32.01
2023-04-22T11:12:39.201Z,31.67
2023-04-22T11:15:15.007Z,31.46
2023-04-22T11:17:50.651Z,31.63
2023-04-22T11:20:18.686Z,31.77
2023-04-22T11:22:54.396Z,31.71
2023-04-22T11:25:23.013Z,32.04
2023-04-22T11:27:50.546Z,31.62
2023-04-22T11:30:23.291Z,31.40
2023-04-22T11:32:59.908Z,31.24
2023-04-22T11:35:33.730Z,31.23
2023-04-22T11:38:05.464Z,31.74
2023-04-22T11:40:40.754Z,31.13
2023-04-22T11:43:10.829Z,31.12
2023-04-22T11:45:39.387Z,30.58
2023-04-22T11:48:09.737Z,30.27
2023-04-22T11:50:39.736Z,30.78
2023-04-22T11:53:17.992Z,30.07
2023-04-22T11:55:47.356Z,28.97
2023-04-22T11:58:18.996Z,29.72
2023-04-22T12:00:48.427Z,29.87
2023-04-22T12:03:18.376Z,29.86
2023-04-22T12:05:53.745Z,30.36
2023-04-22T12:08:41.968Z,30.79
2023-04-22T12:11:15.655Z,30.16
2023-04-22T12:13:46.385Z,30.27
2023-04-22T12:16:21.143Z,30.30
2023-04-22T12:18:48.963Z,29.38
2023-04-22T12:21:23.699Z,30.06
2023-04-22T12:24:10.529Z,29.93
2023-04-22T12:26:40.510Z,29.90
2023-04-22T12:29:07.865Z,29.62
2023-04-22T12:31:34.850Z,29.85
2023-04-22T12:34:04.224Z,30.87
2023-04-22T12:36:32.452Z,30.65
2023-04-22T12:38:59.429Z,30.56
2023-04-22T12:41:28.625Z,31.04
2023-04-22T12:43:55.756Z,31.21
2023-04-22T12:46:26.042Z,31.62
2023-04-22T12:48:53.164Z,30.84
2023-04-22T12:51:20.032Z,30.63
2023-04-22T12:53:49.911Z,31.16
2023-04-22T12:56:16.881Z,30.99
2023-04-22T12:58:44.019Z,31.27
2023-04-22T13:01:10.874Z,31.13
2023-04-22T13:03:37.981Z,30.21
2023-04-22T13:06:07.129Z,29.16
2023-04-22T13:08:36.574Z,29.20
2023-04-22T13:11:03.732Z,28.86
2023-04-22T13:13:30.791Z,29.52
2023-04-22T13:15:57.762Z,29.76
2023-04-22T13:18:27.177Z,30.40
2023-04-22T13:20:57.770Z,30.10
2023-04-22T13:23:25.977Z,30.40
2023-04-22T13:25:58.628Z,30.61
2023-04-22T13:28:27.944Z,30.99
2023-04-22T13:30:58.214Z,30.81
2023-04-22T13:33:27.345Z,30.63
2023-04-22T13:35:54.270Z,31.26
2023-04-22T13:38:26.347Z,30.94
2023-04-22T13:40:53.207Z,31.04
2023-04-22T13:43:23.653Z,31.47
2023-04-22T13:45:50.642Z,31.82
2023-04-22T13:48:19.634Z,31.96
2023-04-22T13:50:48.696Z,32.94
2023-04-22T13:53:17.874Z,32.16
2023-04-22T13:55:47.243Z,32.16
2023-04-22T13:58:16.685Z,32.15
2023-04-22T14:00:45.684Z,31.91
2023-04-22T14:03:12.827Z,31.86
2023-04-22T14:05:39.789Z,32.20
2023-04-22T14:08:06.643Z,31.55
2023-04-22T14:10:33.656Z,32.43
2023-04-22T14:13:03.635Z,32.09
2023-04-22T14:15:30.953Z,32.09
2023-04-22T14:17:57.927Z,33.51
2023-04-22T14:20:25.450Z,32.86
2023-04-22T14:22:54.514Z,33.30
2023-04-22T14:25:21.579Z,33.05
2023-04-22T14:27:50.507Z,33.66
2023-04-22T14:30:17.931Z,34.09
2023-04-22T14:32:45.004Z,33.49
2023-04-22T14:35:16.673Z,33.94
2023-04-22T14:37:44.997Z,34.34
2023-04-22T14:40:12.594Z,34.36
2023-04-22T14:42:40.020Z,34.80
2023-04-22T14:45:07.781Z,34.19
2023-04-22T14:47:34.652Z,34.58
2023-04-22T14:50:06.253Z,34.32
2023-04-22T14:52:35.631Z,34.07
2023-04-22T14:55:15.521Z,33.73
2023-04-22T14:57:53.373Z,33.50
2023-04-22T15:00:24.049Z,32.56
2023-04-22T15:02:58.782Z,33.42
2023-04-22T15:05:25.735Z,32.60
2023-04-22T15:07:52.911Z,32.78
2023-04-22T15:10:20.046Z,33.09
2023-04-22T15:12:49.136Z,33.06
2023-04-22T15:15:17.889Z,33.67
2023-04-22T15:17:45.943Z,33.90
2023-04-22T15:20:14.030Z,33.28
2023-04-22T15:22:41.257Z,33.42
2023-04-22T15:25:10.147Z,33.58
2023-04-22T15:27:39.018Z,33.55
2023-04-22T15:30:10.900Z,33.98
2023-04-22T15:32:40.707Z,34.02
2023-04-22T15:35:08.796Z,34.47
2023-04-22T15:37:35.780Z,34.37
2023-04-22T15:40:03.057Z,34.59
2023-04-22T15:42:34.668Z,35.17
2023-04-22T15:45:03.561Z,34.83
2023-04-22T15:47:30.879Z,35.13
2023-04-22T15:50:06.141Z,34.60
2023-04-22T15:52:38.252Z,35.45
2023-04-22T15:55:09.298Z,35.19
2023-04-22T15:57:36.784Z,34.92
2023-04-22T16:00:12.976Z,35.55
2023-04-22T16:02:42.616Z,35.88
2023-04-22T16:05:11.326Z,35.95
2023-04-22T16:07:40.952Z,36.46
2023-04-22T16:10:09.081Z,36.68
2023-04-22T16:12:35.981Z,36.82
2023-04-22T16:15:02.896Z,36.79
2023-04-22T16:17:30.284Z,37.24
2023-04-22T16:19:57.335Z,36.71
2023-04-22T16:22:24.328Z,37.03
2023-04-22T16:24:51.748Z,36.42
2023-04-22T16:27:19.306Z,36.36
2023-04-22T16:29:46.563Z,36.26
2023-04-22T16:32:13.746Z,36.70
2023-04-22T16:34:43.737Z,36.35
2023-04-22T16:37:10.661Z,36.24
2023-04-22T16:39:37.733Z,36.82
2023-04-22T16:42:07.585Z,36.77
2023-04-22T16:44:34.460Z,36.63
2023-04-22T16:47:01.683Z,36.51
2023-04-22T16:49:28.622Z,36.68
2023-04-22T16:52:00.226Z,36.71
2023-04-22T16:54:27.410Z,37.28
2023-04-22T16:56:54.239Z,37.33
2023-04-22T16:59:21.123Z,37.16
2023-04-22T17:01:48.016Z,36.89
2023-04-22T17:04:15.129Z,37.20
2023-04-22T17:06:42.196Z,37.29
2023-04-22T17:09:14.108Z,36.81
2023-04-22T17:11:41.214Z,36.82
2023-04-22T17:14:10.536Z,36.93
2023-04-22T17:16:41.068Z,37.28
2023-04-22T17:19:07.955Z,36.99
2023-04-22T17:21:34.922Z,37.14
2023-04-22T17:24:05.004Z,37.09
2023-04-22T17:26:34.674Z,37.60
2023-04-22T17:29:07.040Z,37.69
2023-04-22T17:31:34.448Z,37.87
2023-04-22T17:34:05.043Z,38.01
2023-04-22T17:36:34.039Z,38.07
2023-04-22T17:39:01.020Z,37.75
2023-04-22T17:41:27.911Z,37.39
2023-04-22T17:43:54.949Z,38.16
2023-04-22T17:46:26.567Z,38.41
2023-04-22T17:48:53.515Z,38.15
2023-04-22T17:51:20.723Z,38.70
2023-04-22T17:53:47.904Z,38.48
2023-04-22T17:56:14.761Z,38.59
2023-04-22T17:58:41.631Z,38.96
2023-04-22T18:01:11.552Z,39.17
2023-04-22T18:03:45.671Z,39.38
2023-04-22T18:06:12.714Z,39.25
2023-04-22T18:08:39.602Z,39.63
2023-04-22T18:11:06.897Z,39.38
2023-04-22T18:13:36.516Z,38.99
2023-04-22T18:16:08.015Z,39.25
2023-04-22T18:18:35.486Z,39.55
2023-04-22T18:21:04.646Z,39.72
2023-04-22T18:23:35.162Z,40.07
2023-04-22T18:26:09.482Z,40.19
2023-04-22T18:28:40.085Z,40.00
2023-04-22T18:31:12.348Z,40.28
2023-04-22T18:33:39.408Z,40.31
2023-04-22T18:36:09.791Z,40.21
2023-04-22T18:38:38.846Z,40.32
2023-04-22T18:41:10.905Z,40.37
2023-04-22T18:43:37.790Z,40.52
2023-04-22T18:46:07.980Z,40.73
2023-04-22T18:48:37.228Z,41.09
2023-04-22T18:51:04.225Z,41.00
2023-04-22T18:53:31.210Z,40.82
2023-04-22T18:55:58.074Z,40.72
2023-04-22T18:58:29.546Z,40.95
2023-04-22T19:00:58.602Z,40.99
2023-04-22T19:03:27.814Z,41.05
2023-04-22T19:05:54.927Z,41.31
2023-04-22T19:08:21.789Z,41.15
2023-04-22T19:10:48.996Z,41.43
2023-04-22T19:13:29.215Z,41.04
2023-04-22T19:15:57.507Z,41.40
2023-04-22T19:18:24.498Z,41.42
2023-04-22T19:20:51.750Z,41.22
2023-04-22T19:23:21.943Z,41.63
2023-04-22T19:25:48.936Z,41.82
2023-04-22T19:28:18.306Z,41.54
2023-04-22T19:30:45.892Z,41.61
2023-04-22T19:33:13.096Z,41.87
2023-04-22T19:35:39.950Z,42.25
2023-04-22T19:38:10.418Z,42.50
2023-04-22T19:40:37.394Z,42.36
2023-04-22T19:43:06.835Z,42.70
2023-04-22T19:45:34.004Z,42.32
2023-04-22T19:48:01.731Z,42.41
2023-04-22T19:50:31.277Z,42.55
2023-04-22T19:53:05.285Z,42.46
2023-04-22T19:55:36.753Z,42.13
2023-04-22T19:58:04.516Z,42.83
2023-04-22T20:00:32.200Z,42.35
2023-04-22T20:02:59.759Z,41.92
2023-04-22T20:05:27.631Z,42.44
2023-04-22T20:08:03.261Z,42.75
2023-04-22T20:10:31.295Z,43.04
2023-04-22T20:12:59.828Z,42.90
2023-04-22T20:15:27.676Z,42.98
2023-04-22T20:17:57.128Z,43.44
2023-04-22T20:20:27.518Z,43.65
2023-04-22T20:22:57.746Z,43.52
2023-04-22T20:25:28.767Z,43.12
2023-04-22T20:27:56.448Z,44.38
2023-04-22T20:30:23.494Z,44.05
2023-04-22T20:32:50.730Z,44.13
2023-04-22T20:35:20.846Z,44.30
2023-04-22T20:37:50.852Z,45.02
2023-04-22T20:40:23.249Z,45.47
2023-04-22T20:42:57.122Z,44.84
2023-04-22T20:45:24.460Z,45.17
2023-04-22T20:47:53.602Z,45.02
2023-04-22T20:50:22.850Z,45.40
2023-04-22T20:52:49.919Z,45.10
2023-04-22T20:55:17.204Z,44.82
2023-04-22T20:57:44.913Z,44.70
2023-04-22T21:00:15.041Z,45.30
2023-04-22T21:02:43.749Z,45.65
2023-04-22T21:05:11.881Z,45.38
2023-04-22T21:07:41.919Z,45.56
2023-04-22T21:10:09.809Z,45.10
2023-04-22T21:12:38.137Z,46.33
2023-04-22T21:15:08.359Z,46.14
2023-04-22T21:17:38.763Z,47.78
2023-04-22T21:20:09.097Z,47.92
2023-04-22T21:22:40.662Z,48.22
2023-04-22T21:25:17.346Z,48.72
2023-04-22T21:27:44.564Z,48.92
2023-04-22T21:30:14.955Z,49.00
2023-04-22T21:32:44.298Z,48.90
2023-04-22T21:35:14.828Z,48.91
2023-04-22T21:37:46.537Z,49.38
2023-04-22T21:40:15.669Z,49.59
2023-04-22T21:42:42.671Z,49.61
2023-04-22T21:45:12.328Z,51.72
2023-04-22T21:47:39.310Z,51.83
2023-04-22T21:50:07.224Z,52.05
2023-04-22T21:52:34.139Z,51.99
2023-04-22T21:55:01.215Z,52.72
2023-04-22T21:57:30.621Z,52.32
2023-04-22T22:00:02.610Z,53.15
2023-04-22T22:02:29.638Z,54.26
2023-04-22T22:04:56.693Z,55.26
2023-04-22T22:07:23.685Z,55.92
2023-04-22T22:09:50.676Z,57.19
2023-04-22T22:12:23.258Z,57.76
2023-04-22T22:14:50.283Z,59.33
2023-04-22T22:17:17.368Z,60.64
2023-04-22T22:19:44.288Z,61.01
2023-04-22T22:22:11.173Z,61.38
2023-04-22T22:24:38.128Z,61.52
2023-04-22T22:27:05.428Z,62.79
2023-04-22T22:29:32.507Z,63.08
2023-04-22T22:31:59.406Z,62.49
2023-04-22T22:34:26.760Z,61.76
2023-04-22T22:36:53.692Z,61.76
2023-04-22T22:39:20.659Z,62.71
2023-04-22T22:41:49.687Z,62.65
2023-04-22T22:44:19.533Z,62.70
2023-04-22T22:46:48.616Z,63.50
2023-04-22T22:49:18.103Z,63.88
2023-04-22T22:51:45.121Z,63.59
2023-04-22T22:54:12.072Z,63.90
2023-04-22T22:56:39.129Z,63.67
2023-04-22T22:59:08.645Z,63.94
2023-04-22T23:01:35.645Z,64.05
2023-04-22T23:04:06.004Z,64.51
2023-04-22T23:06:40.440Z,64.14
2023-04-22T23:09:08.105Z,65.08
2023-04-22T23:11:37.298Z,64.11
2023-04-22T23:14:04.559Z,64.55
2023-04-22T23:16:34.486Z,64.77
2023-04-22T23:19:02.939Z,64.65
2023-04-22T23:21:34.342Z,65.73
2023-04-22T23:24:03.920Z,66.44
2023-04-22T23:26:33.836Z,67.08
2023-04-22T23:29:01.096Z,66.64
2023-04-22T23:31:32.110Z,66.57
2023-04-22T23:34:02.811Z,67.18
2023-04-22T23:36:32.886Z,67.45
2023-04-22T23:39:05.601Z,68.00
2023-04-22T23:41:33.599Z,68.50
2023-04-22T23:44:00.571Z,69.81
2023-04-22T23:46:30.052Z,69.81
2023-04-22T23:48:57.427Z,69.88
2023-04-22T23:51:24.737Z,69.62
2023-04-22T23:53:51.703Z,69.55
2023-04-22T23:56:21.156Z,68.50
2023-04-22T23:58:54.064Z,68.76
